Flight Track Log - Related Links

Times and Time Zones

All times are in EDT time to prevent confusion due to time zone crossing. See the AWE1571 flight status page for this flight to view local times or setup timezone preferences in your user account.

Time Position Orientation Groundspeed Altitude Reporting Facility
EDT Latitude Longitude Course Direction KTS MPH feet Rate Location/Type
Wed 08:51:00 AM 39.8876 -76.7230 147° Southeast  Level FlightAware Approximate
Wed 08:51:18 AM 40.2106 -76.9436 227° Southwest 208 239 6,600  Level New York Center
Wed 08:52:00 AM 39.8027 -76.6523 147° Southeast  Level FlightAware Approximate
Wed 08:52:18 AM 40.1400 -76.8939 152° Southeast 211 243 8,000  Level New York Center
Wed 08:53:00 AM 39.7274 -76.6339 229° Southwest  Level FlightAware Approximate
Wed 08:53:16 AM 40.0797 -76.8533 153° Southeast 247 284 8,000  Level New York Center
Wed 08:54:00 AM 39.6575 -76.7183 237° Southwest  Level FlightAware Approximate
Wed 08:54:16 AM 40.0050 -76.8036 153° Southeast 279 321 10,600  Level New York Center
Wed 08:55:00 AM 39.5903 -76.8136 227° Southwest  Level FlightAware Approximate
Wed 08:55:17 AM 39.9325 -76.7539 152° Southeast 303 349 11,800  Level New York Center
Wed 08:56:00 AM 39.5218 -76.9095 227° Southwest  Level FlightAware Approximate
Wed 08:56:17 AM 39.8344 -76.6725 147° Southeast 364 419 13,600  Level New York Center
Wed 08:57:16 AM 39.7353 -76.6561 173° South 386 444 15,500 1,678 Climbing New York Center
Wed 08:58:15 AM 39.6475 -76.7558 221° Southwest 363 418 16,900 1,350 Climbing Washington Center
Wed 08:59:16 AM 39.5631 -76.8783 228° Southwest 402 463 18,200 1,412 Climbing Washington Center
Wed 09:00:14 AM 39.4722 -76.9950 225° Southwest 435 501 19,700 1,563 Climbing Washington Center
Wed 09:01:15 AM 39.3583 -77.0894 213° Southwest 468 539 21,300 1,475 Climbing Washington Center
Wed 09:02:16 AM 39.2447 -77.1808 212° Southwest 484 557 22,700 1,488 Climbing Washington Center
Wed 09:03:16 AM 39.1289 -77.2747 212° Southwest 489 563 24,300 1,765 Climbing Washington Center
Wed 09:04:15 AM 39.0211 -77.3736 215° Southwest 494 568 26,200 1,815 Climbing Washington Center
Wed 09:05:15 AM 38.9481 -77.5133 236° Southwest 468 539 27,900 1,686 Climbing Washington Center
Wed 09:06:16 AM 38.8703 -77.6714 238° Southwest 475 547 29,600 1,613 Climbing Washington Center
Wed 09:07:14 AM 38.7867 -77.8022 231° Southwest 480 552 31,100 1,210 Climbing Washington Center
Wed 09:08:15 AM 38.6747 -77.8839 210° Southwest 467 537 32,000 443 Climbing Washington Center
Wed 09:09:16 AM 38.5467 -77.9356 198° South 467 537 32,000  Level Washington Center
Wed 09:10:14 AM 38.4161 -77.9897 198° South 477 549 32,000  Level Washington Center
Wed 09:11:14 AM 38.2858 -78.0439 198° South 489 563 32,000  Level Washington Center
Wed 09:12:16 AM 38.1511 -78.1003 198° South 500 575 32,000  Level Washington Center
Wed 09:13:16 AM 38.0289 -78.1700 204° Southwest 500 575 32,000  Level Washington Center
Wed 09:14:14 AM 37.9325 -78.2797 222° Southwest 476 548 32,000  Level Washington Center
Wed 09:15:15 AM 37.8422 -78.4028 227° Southwest 476 548 32,000  Level Washington Center
Wed 09:16:16 AM 37.7536 -78.5308 229° Southwest 481 554 32,000  Level Washington Center
Wed 09:17:14 AM 37.6647 -78.6586 229° Southwest 486 559 32,000  Level Washington Center
Wed 09:18:15 AM 37.5869 -78.7681 228° Southwest 486 559 32,000  Level Washington Center
Wed 09:19:15 AM 37.4978 -78.8953 229° Southwest 481 554 32,000  Level Washington Center
Wed 09:20:16 AM 37.4067 -79.0194 227° Southwest 481 554 32,000  Level Washington Center
Wed 09:21:16 AM 37.3178 -79.1436 228° Southwest 481 554 32,000  Level Washington Center
Wed 09:22:14 AM 37.2225 -79.2592 224° Southwest 481 554 32,000  Level Washington Center
Wed 09:23:14 AM 37.1111 -79.3528 214° Southwest 481 554 32,000 -541 Level Washington Center
Wed 09:24:16 AM 36.9908 -79.4533 214° Southwest 481 554 30,900 -1,131 Descending Washington Center
Wed 09:25:16 AM 36.8794 -79.5439 213° Southwest 481 554 29,700 -1,271 Descending Washington Center
Wed 09:26:14 AM 36.7700 -79.6344 214° Southwest 481 554 28,400 -864 Descending Washington Center
Wed 09:27:14 AM 36.6586 -79.7242 213° Southwest 481 554 28,000 -197 Descending Washington Center
Wed 09:28:16 AM 36.5553 -79.8094 214° Southwest 487 560 28,000 -2,951 Level Washington Center
Wed 09:29:16 AM 36.4392 -79.9019 213° Southwest 473 544 22,000 -2,950 Descending Atlanta Center
Wed 09:30:16 AM 36.3294 -79.9928 214° Southwest 473 544 22,100 -250 Climbing Atlanta Center
Wed 09:31:16 AM 36.2197 -80.0831 214° Southwest 458 527 21,500 -1,850 Descending Atlanta Center
Wed 09:32:16 AM 36.1222 -80.1650 214° Southwest 444 511 18,400 -3,000 Descending Atlanta Center
Wed 09:33:16 AM 36.0331 -80.2464 216° Southwest 426 490 15,500 -2,600 Descending Atlanta Center
Wed 09:34:16 AM 35.9394 -80.3225 213° Southwest 414 476 13,200 -1,667 Descending Atlanta Center
Wed 09:34:46 AM 35.8969 -80.3681 221° Southwest 376 433 13,000 -200 Descending Atlanta Center
Wed 09:35:16 AM 35.8683 -80.3847 205° Southwest 385 443 13,000  Level Atlanta Center
Wed 09:35:54 AM 35.8156 -80.4331 217° Southwest 306 352 13,000  Level Atlanta Center
Wed 09:36:16 AM 35.7931 -80.4469 207° Southwest 355 409 13,000  Level Atlanta Center
Wed 09:37:00 AM 35.7319 -80.5058 218° Southwest 313 360 13,000  Level Atlanta Center
Wed 09:37:16 AM 35.7217 -80.5064 183° South 333 383 13,000  Level Atlanta Center
Wed 09:38:16 AM 35.6483 -80.5683 214° Southwest 326 375 13,000 -453 Level Atlanta Center
Wed 09:39:02 AM 35.5875 -80.6269 218° Southwest 314 361 12,200 -1,381 Descending Atlanta Center
Wed 09:40:09 AM 35.5078 -80.6917 213° Southwest 299 344 10,400 -1,500 Descending Atlanta Center
Wed 09:41:10 AM 35.4364 -80.7506 214° Southwest 302 348 9,000 -661 Descending Atlanta Center
Wed 09:42:16 AM 35.3608 -80.8097 213° Southwest 315 362 9,000  Level Atlanta Center
Wed 09:43:00 AM 35.3072 -80.8422 206° Southwest 303 349 9,000  Level Atlanta Center
Wed 09:43:16 AM 35.2906 -80.8328 155° Southeast 309 356 9,000  Level Atlanta Center
Wed 09:44:07 AM 35.2153 -80.8331 180° South 278 320 9,000 -915 Level Atlanta Center
Wed 09:45:14 AM 35.1297 -80.8261 176° South 280 322 7,200 -1,525 Descending Atlanta Center
Wed 09:46:09 AM 35.0583 -80.8189 175° South 282 325 5,900 -1,345 Descending Atlanta Center
Wed 09:47:10 AM 34.9811 -80.8167 179° South 274 315 4,600 -934 Descending Atlanta Center
Wed 09:48:11 AM 34.9039 -80.8097 176° South 261 300 4,000 -295 Descending Atlanta Center
Wed 09:49:12 AM 34.8503 -80.8419 206° Southwest 235 270 4,000  Level Atlanta Center
Wed 09:50:13 AM 34.8725 -80.8919 298° West 173 199 4,000  Level Atlanta Center
Wed 09:51:14 AM 34.9169 -80.9131 339° North 166 191 4,000  Level Atlanta Center
Wed 09:52:16 AM 34.9650 -80.9161 357° North 168 193 4,000  Level Atlanta Center
Wed 09:53:23 AM 35.0194 -80.9244 353° North 170 196 4,000 -281 Level Atlanta Center
Wed 09:54:24 AM 35.0675 -80.9250 359° North 171 197 3,400 -590 Descending Atlanta Center

Login

Don't have an account? Register now (free) for customized features, flight alerts, and more!